Tigard, Oregon
Current Conditions -  °F | °C
As of 9:53 AM on Thursday 23 Oct 2014 (Local Time) from KHIO Reporting Station
Broken Clouds Broken Clouds  
Wind Chill: 55°   Ceiling: 7000
Heat Index: 55°   Visibility: 10mi
Dew Point: 53°   Wind: 8mph
Humidity: 93%   Direction: 170°S
Pressure: 29.83"   Gusts: NA
Location:  45.43°N, 122.76°W
Report Text: KHIO 231653Z 17007KT 10SM BKN070 13/12 A2983 RMK AO2 RAE12 SLP100 P0000 T01280117
Loading
Personal Weather Stations






























Interactive Weather Map
Tropical Storm Tracking
New forecast layout! Learn more

10-Day Weather Forecast

Advertisements
Track Severe Weather on mobile